Main page
METAR-TAF:

METAR-TAF

Airports :

Guernsey Airport

Guernsey,

latitude: 49-26N, longitude: 002-36W, elevation: 102 m

Current weather observation

The report was made 24 minutes ago, at 05:20 UTC
Wind 6 kt from the Southwest
Temperature 15°C
Humidity 94%
Pressure 1017 hPa
Visibility 10 km or more
Few clouds at a height of 2800 ft

METAR: EGJB 170520Z 23006KT 9999 FEW028 15/14 Q1017

Time: 06:44 (05:44 UTC)

Forecast

The report was made 43 minutes ago, at 05:01 UTC
Forecast valid from 17 at 06 UTC to 17 at 15 UTC
Wind 4 kt from the Southwest
Visibility 10 km or more
Few clouds at a height of 2000 ft
Scattered clouds at a height of 3800 ft
Probability 30%
from 17 at 06 UTC to 17 at 15 UTC
Visibility: 9000 m
light rain showers

TAF: EGJB 170501Z 1706/1715 23004KT 9999 FEW020 SCT038 PROB30 1706/1715 9000 -SHRA

Weather observations and forecasts of more than 4000 airports (METAR and TAF reports).

The available stations are represented by yellow and red dots on the map.

Hover mouse over dot to see the name of the station.

Then click to see weather observations and forecasts.

To change the map : click on the green buttons with a black cross to zoom in, on the green button with a dash to zoom out, or on the green arrows for adjacent maps.


METAR-TAF: